SAV875A EGGD-GBYD
Flight info
| Callsign | SAV875A |
|---|---|
| Flight time | N/A |
| Altitude | 35000 |
| Route | EXMOR N92 DAWLY N864 BHD DCT MANIG DCT BALDA N480 MAVOS M30 VES N872 RALUS UN872 ABETO UN726 VFA UL14 OSLAD UR724 ADM UR975 ANITI UB600 BJ |
| Aircraft | L101/H-SDFGHIRWXY/S |
Departure
| Time | N/A |
|---|---|
| Airport | Bristol Airport (EGGD) |
Arrival
| Time | 2026-04-28 14:33 |
|---|---|
| Airport | Banjul International Airport (GBYD) |
| Time | Latitude | Longitude | Altitude | Speed | Heading |
|---|---|---|---|---|---|
| 2026-04-28 12:52 | 23.12875 | -12.32642 | 34964 ft | 448 kts | 206° |
| 2026-04-28 12:52 | 23.09918 | -12.33724 | 34970 ft | 448 kts | 206° |
| 2026-04-28 12:53 | 23.04048 | -12.35870 | 34969 ft | 448 kts | 206° |
| 2026-04-28 12:53 | 22.98131 | -12.38031 | 34964 ft | 448 kts | 206° |
| 2026-04-28 12:54 | 22.92219 | -12.40188 | 34960 ft | 447 kts | 206° |
| 2026-04-28 12:54 | 22.86314 | -12.42341 | 34972 ft | 447 kts | 206° |
| 2026-04-28 12:55 | 22.80446 | -12.44479 | 34960 ft | 447 kts | 206° |
| 2026-04-28 12:55 | 22.74474 | -12.46478 | 34964 ft | 451 kts | 202° |
| 2026-04-28 12:56 | 22.68357 | -12.48112 | 34959 ft | 452 kts | 202° |
| 2026-04-28 12:56 | 22.62300 | -12.49787 | 34960 ft | 452 kts | 202° |
| 2026-04-28 12:57 | 22.56216 | -12.51462 | 34971 ft | 451 kts | 202° |
| 2026-04-28 12:57 | 22.50126 | -12.53116 | 34953 ft | 451 kts | 202° |
| 2026-04-28 12:58 | 22.44042 | -12.54769 | 34952 ft | 451 kts | 202° |
| 2026-04-28 12:58 | 22.37952 | -12.56422 | 34952 ft | 451 kts | 202° |
| 2026-04-28 12:59 | 22.31872 | -12.58069 | 34949 ft | 451 kts | 202° |
| 2026-04-28 12:59 | 22.25824 | -12.59705 | 34951 ft | 450 kts | 202° |
| 2026-04-28 13:00 | 22.19744 | -12.61350 | 34958 ft | 450 kts | 202° |
| 2026-04-28 13:00 | 22.13667 | -12.62992 | 34950 ft | 449 kts | 202° |
| 2026-04-28 13:01 | 22.07600 | -12.64630 | 34948 ft | 450 kts | 202° |
| 2026-04-28 13:01 | 22.01521 | -12.66270 | 34945 ft | 450 kts | 202° |
| 2026-04-28 13:02 | 21.95454 | -12.67904 | 34918 ft | 449 kts | 202° |
| 2026-04-28 13:02 | 21.89419 | -12.69528 | 34954 ft | 450 kts | 202° |
| 2026-04-28 13:03 | 21.83342 | -12.71163 | 34941 ft | 450 kts | 202° |
| 2026-04-28 13:03 | 21.77259 | -12.72798 | 34943 ft | 450 kts | 202° |
| 2026-04-28 13:04 | 21.71177 | -12.74432 | 34942 ft | 450 kts | 202° |
| 2026-04-28 13:04 | 21.65098 | -12.76062 | 34942 ft | 450 kts | 202° |
| 2026-04-28 13:05 | 21.59058 | -12.77679 | 34957 ft | 450 kts | 202° |
| 2026-04-28 13:05 | 21.52962 | -12.79314 | 34937 ft | 452 kts | 202° |
| 2026-04-28 13:06 | 21.46854 | -12.80948 | 34938 ft | 452 kts | 202° |
| 2026-04-28 13:06 | 21.40754 | -12.82577 | 34939 ft | 452 kts | 202° |
| 2026-04-28 13:07 | 21.35672 | -12.83935 | 34939 ft | 452 kts | 202° |
| 2026-04-28 13:07 | 21.29567 | -12.85566 | 34918 ft | 452 kts | 202° |
| 2026-04-28 13:08 | 21.22471 | -12.87459 | 34947 ft | 453 kts | 202° |
| 2026-04-28 13:08 | 21.17354 | -12.88824 | 34936 ft | 453 kts | 202° |
| 2026-04-28 13:09 | 21.11265 | -12.90443 | 34937 ft | 453 kts | 202° |
| 2026-04-28 13:09 | 21.05142 | -12.92071 | 34941 ft | 453 kts | 202° |
| 2026-04-28 13:10 | 20.99027 | -12.93697 | 34939 ft | 453 kts | 202° |
| 2026-04-28 13:10 | 20.92906 | -12.95323 | 34941 ft | 453 kts | 202° |
| 2026-04-28 13:11 | 20.86781 | -12.96947 | 34932 ft | 453 kts | 202° |
| 2026-04-28 13:11 | 20.80686 | -12.98564 | 34945 ft | 453 kts | 202° |
| 2026-04-28 13:12 | 20.74555 | -13.00189 | 34963 ft | 453 kts | 202° |
| 2026-04-28 13:12 | 20.68433 | -13.01808 | 34986 ft | 453 kts | 202° |
| 2026-04-28 13:13 | 20.62307 | -13.03429 | 34993 ft | 453 kts | 202° |
| 2026-04-28 13:13 | 20.56167 | -13.05052 | 35027 ft | 455 kts | 202° |
| 2026-04-28 13:14 | 20.50370 | -13.07346 | 35010 ft | 432 kts | 221° |
| 2026-04-28 13:14 | 20.45526 | -13.11041 | 35022 ft | 433 kts | 220° |
| 2026-04-28 13:14 | 20.42967 | -13.12758 | 34919 ft | 435 kts | 219° |
| 2026-04-28 13:15 | 20.40408 | -13.14480 | 34920 ft | 434 kts | 220° |
| 2026-04-28 13:15 | 20.35453 | -13.18155 | 34921 ft | 432 kts | 223° |
| 2026-04-28 13:16 | 20.30597 | -13.21941 | 34920 ft | 432 kts | 223° |
| 2026-04-28 13:16 | 20.25736 | -13.25729 | 34929 ft | 433 kts | 223° |
| 2026-04-28 13:17 | 20.20904 | -13.29509 | 34915 ft | 433 kts | 223° |
| 2026-04-28 13:17 | 20.16049 | -13.33310 | 34917 ft | 433 kts | 223° |
| 2026-04-28 13:18 | 20.11194 | -13.37111 | 34920 ft | 433 kts | 223° |
| 2026-04-28 13:18 | 20.06367 | -13.40887 | 34919 ft | 433 kts | 223° |
| 2026-04-28 13:19 | 20.01503 | -13.44688 | 34917 ft | 433 kts | 223° |
| 2026-04-28 13:19 | 19.96658 | -13.48472 | 35203 ft | 426 kts | 223° |
| 2026-04-28 13:19 | 19.94300 | -13.50302 | 36109 ft | 417 kts | 223° |
| 2026-04-28 13:20 | 19.91928 | -13.52156 | 36112 ft | 430 kts | 223° |
| 2026-04-28 13:20 | 19.89520 | -13.54048 | 35895 ft | 429 kts | 223° |
| 2026-04-28 13:20 | 19.87125 | -13.55917 | 35843 ft | 425 kts | 223° |
| 2026-04-28 13:21 | 19.82370 | -13.59616 | 35933 ft | 428 kts | 223° |
| 2026-04-28 13:21 | 19.77567 | -13.63360 | 35910 ft | 428 kts | 223° |
| 2026-04-28 13:22 | 19.72754 | -13.67104 | 35912 ft | 428 kts | 223° |
| 2026-04-28 13:22 | 19.67942 | -13.70846 | 35928 ft | 428 kts | 223° |
| 2026-04-28 13:23 | 19.63167 | -13.74556 | 35920 ft | 428 kts | 223° |
| 2026-04-28 13:23 | 19.58357 | -13.78291 | 35907 ft | 428 kts | 223° |
| 2026-04-28 13:24 | 19.53547 | -13.82023 | 35932 ft | 429 kts | 223° |
| 2026-04-28 13:24 | 19.48718 | -13.85766 | 35915 ft | 429 kts | 223° |
| 2026-04-28 13:25 | 19.43887 | -13.89508 | 35927 ft | 430 kts | 223° |
| 2026-04-28 13:25 | 19.39053 | -13.93250 | 35923 ft | 430 kts | 223° |
| 2026-04-28 13:26 | 19.34213 | -13.96993 | 35924 ft | 431 kts | 223° |
| 2026-04-28 13:26 | 19.29396 | -14.00716 | 35923 ft | 430 kts | 223° |
| 2026-04-28 13:27 | 19.24558 | -14.04453 | 35901 ft | 430 kts | 223° |
| 2026-04-28 13:27 | 19.19705 | -14.08199 | 35938 ft | 432 kts | 223° |
| 2026-04-28 13:28 | 19.14845 | -14.11946 | 35925 ft | 432 kts | 222° |
| 2026-04-28 13:28 | 19.10009 | -14.15671 | 35924 ft | 432 kts | 223° |
| 2026-04-28 13:29 | 19.05149 | -14.19413 | 35926 ft | 432 kts | 223° |
| 2026-04-28 13:29 | 19.00283 | -14.23157 | 35923 ft | 432 kts | 223° |
| 2026-04-28 13:30 | 18.95412 | -14.26903 | 35929 ft | 433 kts | 223° |
| 2026-04-28 13:30 | 18.90532 | -14.30652 | 35926 ft | 433 kts | 222° |
| 2026-04-28 13:31 | 18.83194 | -14.36286 | 35924 ft | 435 kts | 222° |
| 2026-04-28 13:31 | 18.78327 | -14.40017 | 35919 ft | 435 kts | 222° |
| 2026-04-28 13:32 | 18.73425 | -14.43773 | 35937 ft | 435 kts | 222° |
| 2026-04-28 13:32 | 18.68522 | -14.47527 | 35939 ft | 435 kts | 222° |
| 2026-04-28 13:33 | 18.63612 | -14.51284 | 35941 ft | 435 kts | 222° |
| 2026-04-28 13:33 | 18.58699 | -14.55040 | 35941 ft | 435 kts | 222° |
| 2026-04-28 13:34 | 18.53820 | -14.58769 | 35918 ft | 435 kts | 222° |
| 2026-04-28 13:34 | 18.48900 | -14.62527 | 35950 ft | 438 kts | 222° |
| 2026-04-28 13:35 | 18.43953 | -14.66301 | 35940 ft | 439 kts | 222° |
| 2026-04-28 13:35 | 18.39009 | -14.70069 | 35939 ft | 439 kts | 222° |
| 2026-04-28 13:36 | 18.34060 | -14.73839 | 35941 ft | 439 kts | 222° |
| 2026-04-28 13:36 | 18.29113 | -14.77604 | 35940 ft | 438 kts | 222° |
| 2026-04-28 13:37 | 18.24201 | -14.81342 | 35946 ft | 438 kts | 222° |
| 2026-04-28 13:37 | 18.19257 | -14.85100 | 35927 ft | 439 kts | 222° |
| 2026-04-28 13:38 | 18.14302 | -14.88866 | 35952 ft | 441 kts | 221° |
| 2026-04-28 13:38 | 18.09326 | -14.92643 | 35942 ft | 441 kts | 221° |
| 2026-04-28 13:39 | 18.04344 | -14.96421 | 35949 ft | 442 kts | 221° |
| 2026-04-28 13:39 | 17.99355 | -15.00203 | 35949 ft | 442 kts | 221° |
| 2026-04-28 13:40 | 17.94371 | -15.03979 | 35951 ft | 442 kts | 221° |
| 2026-04-28 13:40 | 17.89371 | -15.07763 | 35948 ft | 442 kts | 221° |
| 2026-04-28 13:41 | 17.84381 | -15.11537 | 35949 ft | 442 kts | 221° |
| 2026-04-28 13:41 | 17.79371 | -15.15280 | 35955 ft | 443 kts | 221° |
| 2026-04-28 13:42 | 17.74360 | -15.19003 | 35947 ft | 444 kts | 221° |
| 2026-04-28 13:42 | 17.69336 | -15.22781 | 35949 ft | 444 kts | 221° |
| 2026-04-28 13:43 | 17.64363 | -15.26612 | 35947 ft | 443 kts | 223° |
| 2026-04-28 13:43 | 17.59378 | -15.30433 | 35950 ft | 444 kts | 220° |
| 2026-04-28 13:44 | 17.54301 | -15.34146 | 35949 ft | 444 kts | 221° |
| 2026-04-28 13:44 | 17.49281 | -15.37916 | 35954 ft | 444 kts | 221° |
| 2026-04-28 13:45 | 17.44266 | -15.41698 | 35955 ft | 444 kts | 221° |
| 2026-04-28 13:45 | 17.39282 | -15.45449 | 35952 ft | 444 kts | 221° |
| 2026-04-28 13:46 | 17.34265 | -15.49227 | 35952 ft | 444 kts | 221° |
| 2026-04-28 13:46 | 17.29250 | -15.53000 | 35958 ft | 444 kts | 221° |
| 2026-04-28 13:47 | 17.24224 | -15.56781 | 35955 ft | 444 kts | 221° |
| 2026-04-28 13:47 | 17.19205 | -15.60553 | 35955 ft | 444 kts | 221° |
| 2026-04-28 13:48 | 17.14212 | -15.64302 | 35959 ft | 444 kts | 221° |
| 2026-04-28 13:48 | 17.09182 | -15.68074 | 35973 ft | 445 kts | 221° |
| 2026-04-28 13:49 | 17.04129 | -15.71852 | 35963 ft | 447 kts | 221° |
| 2026-04-28 13:49 | 16.99073 | -15.75637 | 35963 ft | 447 kts | 221° |
| 2026-04-28 13:50 | 16.94021 | -15.79420 | 35969 ft | 447 kts | 221° |
| 2026-04-28 13:50 | 16.88966 | -15.83204 | 35969 ft | 447 kts | 221° |
| 2026-04-28 13:51 | 16.83908 | -15.86988 | 35965 ft | 447 kts | 221° |
| 2026-04-28 13:51 | 16.78851 | -15.90769 | 35966 ft | 447 kts | 221° |
| 2026-04-28 13:52 | 16.73815 | -15.94531 | 35981 ft | 447 kts | 221° |
| 2026-04-28 13:52 | 16.68744 | -15.98318 | 35972 ft | 448 kts | 221° |
| 2026-04-28 13:53 | 16.63672 | -16.02101 | 35975 ft | 449 kts | 220° |
| 2026-04-28 13:53 | 16.58588 | -16.05892 | 35971 ft | 449 kts | 220° |
| 2026-04-28 13:54 | 16.53500 | -16.09683 | 35980 ft | 449 kts | 220° |
| 2026-04-28 13:54 | 16.48434 | -16.13444 | 35980 ft | 449 kts | 220° |
| 2026-04-28 13:55 | 16.43339 | -16.17220 | 35980 ft | 449 kts | 220° |
| 2026-04-28 13:55 | 16.38247 | -16.21002 | 35988 ft | 450 kts | 220° |
| 2026-04-28 13:56 | 16.33139 | -16.24795 | 35985 ft | 451 kts | 220° |
| 2026-04-28 13:56 | 16.28895 | -16.27944 | 35984 ft | 451 kts | 220° |
| 2026-04-28 13:57 | 16.23779 | -16.31739 | 35982 ft | 451 kts | 220° |
| 2026-04-28 13:57 | 16.18661 | -16.35533 | 35984 ft | 451 kts | 220° |
| 2026-04-28 13:58 | 16.13546 | -16.39323 | 35988 ft | 452 kts | 220° |
| 2026-04-28 13:58 | 16.08417 | -16.43120 | 35989 ft | 452 kts | 220° |
| 2026-04-28 13:59 | 16.03336 | -16.46958 | 35994 ft | 451 kts | 221° |
| 2026-04-28 13:59 | 15.98317 | -16.50910 | 35998 ft | 453 kts | 221° |
| 2026-04-28 14:00 | 15.93315 | -16.54829 | 35996 ft | 453 kts | 221° |
| 2026-04-28 14:00 | 15.88280 | -16.58776 | 35996 ft | 453 kts | 221° |
| 2026-04-28 14:01 | 15.83246 | -16.62727 | 35991 ft | 453 kts | 221° |
| 2026-04-28 14:01 | 15.78216 | -16.66674 | 35995 ft | 453 kts | 221° |
| 2026-04-28 14:02 | 15.73188 | -16.70616 | 35992 ft | 453 kts | 221° |
| 2026-04-28 14:02 | 15.68151 | -16.74565 | 35993 ft | 454 kts | 221° |
| 2026-04-28 14:03 | 15.63141 | -16.78489 | 36009 ft | 455 kts | 221° |
| 2026-04-28 14:03 | 15.58086 | -16.82445 | 36003 ft | 455 kts | 221° |
| 2026-04-28 14:04 | 15.53037 | -16.86394 | 36009 ft | 455 kts | 221° |
| 2026-04-28 14:04 | 15.47982 | -16.90345 | 36010 ft | 455 kts | 221° |
| 2026-04-28 14:05 | 15.42926 | -16.94295 | 36010 ft | 455 kts | 221° |
| 2026-04-28 14:05 | 15.37867 | -16.98245 | 36003 ft | 455 kts | 221° |
| 2026-04-28 14:06 | 15.32806 | -17.02193 | 35988 ft | 455 kts | 221° |
| 2026-04-28 14:06 | 15.27789 | -17.06106 | 36017 ft | 455 kts | 221° |
| 2026-04-28 14:07 | 15.22714 | -17.10060 | 36006 ft | 455 kts | 221° |
| 2026-04-28 14:07 | 15.17643 | -17.14009 | 36007 ft | 455 kts | 221° |
| 2026-04-28 14:08 | 15.12607 | -17.17928 | 36009 ft | 455 kts | 221° |
| 2026-04-28 14:08 | 15.07536 | -17.21873 | 36006 ft | 455 kts | 221° |
| 2026-04-28 14:09 | 15.02464 | -17.25815 | 36009 ft | 456 kts | 221° |
| 2026-04-28 14:09 | 14.97389 | -17.29758 | 36005 ft | 456 kts | 221° |
| 2026-04-28 14:10 | 14.94873 | -17.31713 | 35580 ft | 457 kts | 221° |
| 2026-04-28 14:10 | 14.92354 | -17.33666 | 35139 ft | 448 kts | 221° |
| 2026-04-28 14:10 | 14.89867 | -17.35590 | 34700 ft | 444 kts | 221° |
| 2026-04-28 14:10 | 14.87390 | -17.37510 | 34276 ft | 445 kts | 221° |
| 2026-04-28 14:11 | 14.84915 | -17.39432 | 33825 ft | 446 kts | 221° |
| 2026-04-28 14:11 | 14.82445 | -17.41351 | 33362 ft | 449 kts | 220° |
| 2026-04-28 14:11 | 14.79778 | -17.43120 | 32860 ft | 458 kts | 209° |
| 2026-04-28 14:11 | 14.76708 | -17.44098 | 32364 ft | 469 kts | 191° |
| 2026-04-28 14:12 | 14.73409 | -17.44082 | 31867 ft | 481 kts | 175° |
| 2026-04-28 14:12 | 14.70128 | -17.43251 | 31420 ft | 490 kts | 165° |
| 2026-04-28 14:12 | 14.66912 | -17.41974 | 30978 ft | 497 kts | 160° |
| 2026-04-28 14:12 | 14.63746 | -17.40495 | 30545 ft | 502 kts | 158° |
| 2026-04-28 14:13 | 14.60648 | -17.38932 | 30118 ft | 504 kts | 156° |
| 2026-04-28 14:13 | 14.57526 | -17.37268 | 29620 ft | 503 kts | 154° |
| 2026-04-28 14:13 | 14.54470 | -17.35491 | 29117 ft | 504 kts | 152° |
| 2026-04-28 14:13 | 14.51457 | -17.33633 | 28621 ft | 506 kts | 151° |
| 2026-04-28 14:14 | 14.48428 | -17.31766 | 28150 ft | 507 kts | 151° |
| 2026-04-28 14:14 | 14.45373 | -17.29932 | 27674 ft | 507 kts | 152° |
| 2026-04-28 14:14 | 14.42299 | -17.28122 | 27202 ft | 508 kts | 152° |
| 2026-04-28 14:14 | 14.39228 | -17.26319 | 26758 ft | 508 kts | 152° |
| 2026-04-28 14:15 | 14.36157 | -17.24510 | 26287 ft | 508 kts | 152° |
| 2026-04-28 14:15 | 14.33084 | -17.22692 | 25856 ft | 508 kts | 152° |
| 2026-04-28 14:15 | 14.30019 | -17.20876 | 25415 ft | 508 kts | 152° |
| 2026-04-28 14:15 | 14.26959 | -17.19066 | 24970 ft | 508 kts | 152° |
| 2026-04-28 14:16 | 14.23953 | -17.17308 | 24555 ft | 493 kts | 153° |
| 2026-04-28 14:16 | 14.20995 | -17.15714 | 24121 ft | 465 kts | 155° |
| 2026-04-28 14:16 | 14.18177 | -17.14249 | 23695 ft | 442 kts | 155° |
| 2026-04-28 14:16 | 14.15456 | -17.12790 | 23232 ft | 440 kts | 154° |
| 2026-04-28 14:17 | 14.12758 | -17.11314 | 22741 ft | 438 kts | 153° |
| 2026-04-28 14:17 | 14.10096 | -17.09796 | 22252 ft | 437 kts | 153° |
| 2026-04-28 14:17 | 14.07453 | -17.08255 | 21741 ft | 435 kts | 152° |
| 2026-04-28 14:17 | 14.04861 | -17.06742 | 21194 ft | 433 kts | 152° |
| 2026-04-28 14:18 | 14.02244 | -17.05220 | 20628 ft | 430 kts | 152° |
| 2026-04-28 14:18 | 13.99646 | -17.03713 | 20086 ft | 427 kts | 152° |
| 2026-04-28 14:18 | 13.97068 | -17.02216 | 19553 ft | 424 kts | 152° |
| 2026-04-28 14:18 | 13.94503 | -17.00725 | 19033 ft | 422 kts | 152° |
| 2026-04-28 14:19 | 13.91953 | -16.99241 | 18525 ft | 420 kts | 152° |
| 2026-04-28 14:19 | 13.89418 | -16.97767 | 17970 ft | 418 kts | 152° |
| 2026-04-28 14:19 | 13.86901 | -16.96301 | 17383 ft | 410 kts | 152° |
| 2026-04-28 14:19 | 13.84470 | -16.94877 | 16808 ft | 393 kts | 152° |
| 2026-04-28 14:20 | 13.82140 | -16.93506 | 16244 ft | 379 kts | 152° |
| 2026-04-28 14:20 | 13.79887 | -16.92183 | 15679 ft | 367 kts | 152° |
| 2026-04-28 14:20 | 13.77699 | -16.90905 | 15115 ft | 356 kts | 153° |
| 2026-04-28 14:20 | 13.75578 | -16.89670 | 14577 ft | 346 kts | 153° |
| 2026-04-28 14:21 | 13.73506 | -16.88466 | 14051 ft | 337 kts | 153° |
| 2026-04-28 14:21 | 13.71517 | -16.87311 | 13486 ft | 320 kts | 153° |
| 2026-04-28 14:21 | 13.69708 | -16.86254 | 12154 ft | 284 kts | 153° |
| 2026-04-28 14:21 | 13.68056 | -16.85309 | 11103 ft | 258 kts | 153° |
| 2026-04-28 14:22 | 13.66563 | -16.84463 | 10271 ft | 233 kts | 153° |
| 2026-04-28 14:22 | 13.65191 | -16.83685 | 9396 ft | 218 kts | 152° |
| 2026-04-28 14:22 | 13.63835 | -16.82912 | 8556 ft | 230 kts | 152° |
| 2026-04-28 14:22 | 13.62443 | -16.82108 | 8290 ft | 233 kts | 151° |
| 2026-04-28 14:23 | 13.60907 | -16.81216 | 7998 ft | 267 kts | 151° |
| 2026-04-28 14:23 | 13.59284 | -16.80275 | 8063 ft | 268 kts | 151° |
| 2026-04-28 14:23 | 13.57646 | -16.79325 | 8077 ft | 273 kts | 151° |
| 2026-04-28 14:23 | 13.55991 | -16.78364 | 7946 ft | 267 kts | 151° |
| 2026-04-28 14:24 | 13.54386 | -16.77435 | 6951 ft | 269 kts | 151° |
| 2026-04-28 14:24 | 13.52748 | -16.76493 | 5789 ft | 269 kts | 151° |
| 2026-04-28 14:24 | 13.51094 | -16.75541 | 5162 ft | 273 kts | 150° |
| 2026-04-28 14:24 | 13.49501 | -16.74616 | 4853 ft | 270 kts | 150° |
| 2026-04-28 14:25 | 13.47872 | -16.73669 | 4239 ft | 273 kts | 150° |
| 2026-04-28 14:25 | 13.46224 | -16.72715 | 3616 ft | 272 kts | 150° |
| 2026-04-28 14:25 | 13.44582 | -16.71765 | 2944 ft | 269 kts | 150° |
| 2026-04-28 14:25 | 13.42960 | -16.70827 | 2257 ft | 266 kts | 149° |
| 2026-04-28 14:26 | 13.41394 | -16.69925 | 1841 ft | 248 kts | 148° |
| 2026-04-28 14:26 | 13.39923 | -16.69079 | 1701 ft | 238 kts | 149° |
| 2026-04-28 14:26 | 13.38478 | -16.68240 | 1752 ft | 239 kts | 149° |
| 2026-04-28 14:26 | 13.37027 | -16.67396 | 1945 ft | 240 kts | 149° |
| 2026-04-28 14:27 | 13.35567 | -16.66530 | 2005 ft | 244 kts | 143° |
| 2026-04-28 14:27 | 13.34390 | -16.65313 | 1844 ft | 237 kts | 119° |
| 2026-04-28 14:27 | 13.33596 | -16.63835 | 1921 ft | 237 kts | 112° |
| 2026-04-28 14:27 | 13.32898 | -16.62292 | 1895 ft | 238 kts | 111° |
| 2026-04-28 14:28 | 13.32236 | -16.60744 | 1874 ft | 235 kts | 110° |
| 2026-04-28 14:28 | 13.31598 | -16.59214 | 1893 ft | 237 kts | 111° |
| 2026-04-28 14:28 | 13.30973 | -16.57680 | 1882 ft | 222 kts | 110° |
| 2026-04-28 14:28 | 13.30401 | -16.56293 | 1951 ft | 199 kts | 109° |
| 2026-04-28 14:29 | 13.29867 | -16.55025 | 1968 ft | 192 kts | 110° |
| 2026-04-28 14:29 | 13.29212 | -16.53806 | 1865 ft | 204 kts | 129° |
| 2026-04-28 14:29 | 13.27979 | -16.53103 | 1775 ft | 205 kts | 169° |
| 2026-04-28 14:29 | 13.26611 | -16.53286 | 1839 ft | 198 kts | 207° |
| 2026-04-28 14:30 | 13.25647 | -16.54244 | 1924 ft | 194 kts | 244° |
| 2026-04-28 14:30 | 13.25354 | -16.55578 | 1949 ft | 192 kts | 273° |
| 2026-04-28 14:30 | 13.25644 | -16.56890 | 1897 ft | 188 kts | 296° |
| 2026-04-28 14:30 | 13.26414 | -16.57944 | 1888 ft | 182 kts | 315° |
| 2026-04-28 14:31 | 13.27343 | -16.58802 | 1831 ft | 179 kts | 323° |
| 2026-04-28 14:31 | 13.28347 | -16.59541 | 1705 ft | 175 kts | 328° |
| 2026-04-28 14:31 | 13.29303 | -16.60254 | 1427 ft | 165 kts | 320° |
| 2026-04-28 14:31 | 13.30175 | -16.60994 | 1064 ft | 161 kts | 319° |
| 2026-04-28 14:32 | 13.30927 | -16.61808 | 791 ft | 152 kts | 310° |
| 2026-04-28 14:32 | 13.31580 | -16.62620 | 548 ft | 145 kts | 311° |
| 2026-04-28 14:32 | 13.32238 | -16.63404 | 310 ft | 145 kts | 314° |
| 2026-04-28 14:32 | 13.32915 | -16.64186 | 123 ft | 149 kts | 313° |
| 2026-04-28 14:33 | 13.33593 | -16.64991 | 95 ft | 150 kts | 308° |
| 2026-04-28 14:33 | 13.34258 | -16.65783 | 99 ft | 148 kts | 309° |
| 2026-04-28 14:33 | 13.34648 | -16.66249 | 98 ft | 33 kts | 310° |
| 2026-04-28 14:33 | 13.34765 | -16.66395 | 99 ft | 13 kts | 315° |
| 2026-04-28 14:34 | 13.34834 | -16.66449 | 99 ft | 1 kts | 208° |
| 2026-04-28 14:34 | 13.34821 | -16.66445 | 97 ft | 4 kts | 163° |
| 2026-04-28 14:34 | 13.34801 | -16.66429 | 100 ft | 8 kts | 142° |
| 2026-04-28 14:35 | 13.34724 | -16.66340 | 99 ft | 17 kts | 129° |
| 2026-04-28 14:35 | 13.34640 | -16.66238 | 98 ft | 21 kts | 131° |
| 2026-04-28 14:35 | 13.34536 | -16.66116 | 97 ft | 25 kts | 131° |
| 2026-04-28 14:35 | 13.34415 | -16.65977 | 97 ft | 27 kts | 131° |
| 2026-04-28 14:36 | 13.34288 | -16.65820 | 94 ft | 30 kts | 131° |
| 2026-04-28 14:36 | 13.34162 | -16.65673 | 99 ft | 16 kts | 130° |
| 2026-04-28 14:36 | 13.34116 | -16.65601 | 98 ft | 7 kts | 90° |
| 2026-04-28 14:36 | 13.34139 | -16.65568 | 98 ft | 7 kts | 47° |
| 2026-04-28 14:37 | 13.34178 | -16.65530 | 97 ft | 9 kts | 41° |
| 2026-04-28 14:37 | 13.34214 | -16.65484 | 97 ft | 6 kts | 77° |
| 2026-04-28 14:37 | 13.34195 | -16.65444 | 98 ft | 7 kts | 127° |
| 2026-04-28 14:37 | 13.34174 | -16.65401 | 100 ft | 6 kts | 81° |
| 2026-04-28 14:38 | 13.34203 | -16.65363 | 96 ft | 7 kts | 46° |
| 2026-04-28 14:38 | 13.34200 | -16.65338 | 96 ft | 2 kts | 122° |
| 2026-04-28 14:38 | 13.34187 | -16.65319 | 98 ft | 4 kts | 130° |
| 2026-04-28 14:38 | 13.34170 | -16.65299 | 98 ft | 4 kts | 130° |
| 2026-04-28 14:39 | 13.34169 | -16.65297 | 99 ft | 0 kts | 129° |